Time;durP1;ratioP1;P1;durP2;ratioP2;P2;SDS_P1;SDS_P2;PMS_P1;PMS_P2;Temp;Humidity;BMP_temperature;BMP_pressure;BME280_temperature;BME280_humidity;BME280_pressure;Samples;Min_cycle;Max_cycle;Signal;HPM_P1;HPM_P2
2024/01/27 00:00:09;;;;;;;21.65;4.03;;;5.10;99.90;;;;;;5011938;28;20568;-68
2024/01/27 00:02:36;;;;;;;15.88;3.75;;;5.10;99.90;;;;;;5011438;28;20477;-69
2024/01/27 00:05:02;;;;;;;19.13;3.40;;;5.20;99.90;;;;;;5011277;28;20227;-69
2024/01/27 00:07:29;;;;;;;20.65;3.50;;;5.00;99.90;;;;;;5011701;28;20196;-68
2024/01/27 00:09:55;;;;;;;15.63;4.95;;;5.10;99.90;;;;;;5011576;28;20048;-68
2024/01/27 00:12:21;;;;;;;23.83;6.40;;;5.00;99.90;;;;;;5010077;28;20037;-68
2024/01/27 00:14:47;;;;;;;19.80;4.38;;;5.10;99.90;;;;;;5026416;28;20096;-68
2024/01/27 00:17:12;;;;;;;20.23;5.10;;;5.10;99.90;;;;;;5011207;28;20042;-68
2024/01/27 00:19:38;;;;;;;30.05;4.93;;;5.10;99.90;;;;;;5011165;28;20125;-68
2024/01/27 00:22:04;;;;;;;17.48;4.05;;;5.00;99.90;;;;;;5011284;28;20098;-66
2024/01/27 00:24:30;;;;;;;21.92;4.63;;;5.00;99.90;;;;;;5011174;28;20481;-67
2024/01/27 00:26:55;;;;;;;18.17;3.53;;;5.10;99.90;;;;;;5010139;28;20414;-67
2024/01/27 00:29:21;;;;;;;26.67;4.63;;;5.10;99.90;;;;;;5007944;28;20054;-67
2024/01/27 00:31:49;;;;;;;21.83;3.83;;;5.10;99.90;;;;;;5010922;28;20044;-67
2024/01/27 00:34:14;;;;;;;18.60;3.90;;;5.00;99.90;;;;;;5010281;28;20414;-67
2024/01/27 00:36:42;;;;;;;10.23;2.88;;;5.00;99.90;;;;;;5010469;28;20049;-67
2024/01/27 00:39:08;;;;;;;19.10;3.47;;;5.00;99.90;;;;;;5009119;28;20058;-67
2024/01/27 00:41:34;;;;;;;24.13;3.83;;;5.00;99.90;;;;;;5010265;28;20041;-67
2024/01/27 00:43:59;;;;;;;20.70;3.72;;;5.00;99.90;;;;;;5010351;28;20045;-67
2024/01/27 00:46:25;;;;;;;15.35;3.25;;;5.10;99.90;;;;;;5009715;28;20168;-67
2024/01/27 00:48:51;;;;;;;24.70;3.40;;;4.90;99.90;;;;;;5009927;28;20397;-67
2024/01/27 00:51:16;;;;;;;17.25;3.90;;;5.00;99.90;;;;;;5009927;28;20038;-67
2024/01/27 00:53:42;;;;;;;15.27;3.30;;;4.90;99.90;;;;;;5024944;28;20049;-67
2024/01/27 00:56:08;;;;;;;27.33;5.95;;;5.00;99.90;;;;;;5024703;28;20111;-67
2024/01/27 00:58:34;;;;;;;18.65;3.47;;;5.00;99.90;;;;;;5025014;28;20128;-67
2024/01/27 01:01:01;;;;;;;19.95;3.67;;;5.00;99.90;;;;;;5009406;28;20055;-67
2024/01/27 01:03:26;;;;;;;22.58;3.53;;;5.00;99.90;;;;;;5009496;28;20058;-67
2024/01/27 01:05:52;;;;;;;20.05;3.22;;;5.10;99.90;;;;;;5009262;28;20064;-67
2024/01/27 01:08:18;;;;;;;19.17;3.75;;;4.90;99.90;;;;;;5009581;28;20117;-68
2024/01/27 01:10:44;;;;;;;16.83;3.97;;;4.90;99.90;;;;;;5009526;28;20057;-68
2024/01/27 01:13:10;;;;;;;22.60;3.80;;;5.00;99.90;;;;;;5009932;28;20053;-68
2024/01/27 01:15:36;;;;;;;15.35;3.30;;;4.90;99.90;;;;;;5009284;28;20097;-68
2024/01/27 01:18:01;;;;;;;18.13;3.80;;;5.00;99.90;;;;;;5009811;28;20057;-68
2024/01/27 01:20:27;;;;;;;18.67;3.22;;;4.90;99.90;;;;;;5009668;28;20509;-68
2024/01/27 01:22:53;;;;;;;21.27;3.50;;;4.90;99.90;;;;;;5008170;28;20124;-67
2024/01/27 01:25:19;;;;;;;20.35;3.75;;;4.90;99.90;;;;;;5008017;28;20050;-67
2024/01/27 01:27:49;;;;;;;17.20;3.65;;;4.90;99.90;;;;;;5007750;28;20345;-69
2024/01/27 01:30:18;;;;;;;14.48;3.83;;;4.90;99.90;;;;;;5009396;28;20049;-68
2024/01/27 01:32:44;;;;;;;14.57;3.60;;;4.90;99.90;;;;;;5009244;28;20144;-67
2024/01/27 01:35:13;;;;;;;19.95;4.07;;;4.90;99.90;;;;;;5024236;28;20129;-68
2024/01/27 01:37:39;;;;;;;20.17;3.58;;;4.80;99.90;;;;;;5009482;28;20152;-69
2024/01/27 01:40:05;;;;;;;18.02;3.67;;;4.90;99.90;;;;;;5009289;28;20053;-68
2024/01/27 01:42:32;;;;;;;18.65;3.65;;;4.90;99.90;;;;;;5024113;28;20050;-68
2024/01/27 01:44:58;;;;;;;21.25;3.85;;;4.80;99.90;;;;;;5008941;28;20057;-68
2024/01/27 01:47:24;;;;;;;11.40;4.20;;;4.80;99.90;;;;;;5009305;28;20068;-67
2024/01/27 01:49:50;;;;;;;18.40;4.10;;;4.80;99.90;;;;;;5024247;28;20056;-69
2024/01/27 01:52:19;;;;;;;14.68;3.90;;;4.80;99.90;;;;;;5024062;28;20053;-67
2024/01/27 01:54:50;;;;;;;14.80;4.18;;;4.90;99.90;;;;;;5009168;28;20034;-67
2024/01/27 01:57:16;;;;;;;11.20;3.42;;;4.80;99.90;;;;;;5023966;28;20046;-67
2024/01/27 01:59:43;;;;;;;19.20;3.63;;;4.80;99.90;;;;;;5023599;28;20100;-67
2024/01/27 02:02:09;;;;;;;15.25;3.92;;;4.80;99.90;;;;;;5008663;28;20041;-67
2024/01/27 02:04:48;;;;;;;15.20;3.15;;;4.80;99.90;;;;;;5023460;28;20112;-68
2024/01/27 02:07:14;;;;;;;16.67;3.35;;;4.80;99.90;;;;;;5008713;28;20047;-68
2024/01/27 02:09:40;;;;;;;19.08;4.72;;;4.80;99.90;;;;;;5008927;28;20065;-68
2024/01/27 02:12:06;;;;;;;18.65;3.72;;;4.70;99.90;;;;;;5008560;28;20083;-67
2024/01/27 02:14:32;;;;;;;13.18;3.75;;;4.70;99.90;;;;;;5007264;28;20494;-68
2024/01/27 02:16:58;;;;;;;17.42;4.82;;;4.70;99.90;;;;;;5008554;28;20152;-68
2024/01/27 02:19:24;;;;;;;12.25;3.63;;;4.70;99.90;;;;;;5023643;28;20140;-68
2024/01/27 02:21:50;;;;;;;12.98;3.72;;;4.60;99.90;;;;;;5008887;28;20050;-68
2024/01/27 02:24:16;;;;;;;24.75;4.25;;;4.70;99.90;;;;;;5008498;28;20134;-68
2024/01/27 02:26:41;;;;;;;13.50;4.45;;;4.60;99.90;;;;;;5008265;28;20133;-67
2024/01/27 02:29:07;;;;;;;21.05;3.28;;;4.70;99.90;;;;;;5023590;28;20088;-67
2024/01/27 02:31:33;;;;;;;15.23;3.78;;;4.60;99.90;;;;;;5007334;28;20053;-68
2024/01/27 02:33:58;;;;;;;15.35;3.60;;;4.60;99.90;;;;;;5008790;28;20054;-69
2024/01/27 02:36:24;;;;;;;14.73;3.60;;;4.60;99.90;;;;;;5008494;28;20049;-68
2024/01/27 02:38:50;;;;;;;12.40;3.38;;;4.60;99.90;;;;;;5007189;28;20061;-68
2024/01/27 02:41:16;;;;;;;12.43;4.00;;;4.60;99.90;;;;;;5023236;28;20053;-67
2024/01/27 02:43:41;;;;;;;18.35;4.43;;;4.60;99.90;;;;;;5008262;28;20046;-68
2024/01/27 02:46:12;;;;;;;17.42;3.30;;;4.60;99.90;;;;;;5008224;28;20439;-68
2024/01/27 02:48:42;;;;;;;10.07;3.17;;;4.60;99.90;;;;;;5006881;28;20050;-68
2024/01/27 02:51:08;;;;;;;18.67;4.57;;;4.60;99.90;;;;;;5023658;28;20088;-68
2024/01/27 02:53:34;;;;;;;15.32;3.63;;;4.60;99.90;;;;;;5027494;28;20450;-68
2024/01/27 02:56:00;;;;;;;20.60;5.03;;;4.60;99.90;;;;;;5012051;28;20041;-69
2024/01/27 02:58:26;;;;;;;13.00;3.50;;;4.50;99.90;;;;;;5026986;28;20076;-69
2024/01/27 03:00:51;;;;;;;11.98;3.25;;;4.50;99.90;;;;;;5012295;28;20053;-68
2024/01/27 03:03:17;;;;;;;18.33;3.53;;;4.40;99.90;;;;;;5011840;28;20572;-69
2024/01/27 03:05:43;;;;;;;17.77;4.30;;;4.30;99.90;;;;;;5012037;28;20081;-68
2024/01/27 03:08:09;;;;;;;16.67;3.35;;;4.30;99.90;;;;;;5011847;28;20409;-69
2024/01/27 03:10:34;;;;;;;12.82;3.65;;;4.40;99.90;;;;;;5011241;28;20130;-69
2024/01/27 03:13:00;;;;;;;15.07;3.53;;;4.30;99.90;;;;;;5011646;28;20392;-68
2024/01/27 03:15:26;;;;;;;15.52;3.55;;;4.30;99.90;;;;;;5011588;28;20242;-68
2024/01/27 03:17:52;;;;;;;22.55;4.28;;;4.20;99.90;;;;;;5011518;28;20057;-68
2024/01/27 03:20:17;;;;;;;12.60;4.13;;;4.20;99.90;;;;;;5010108;28;20138;-68
2024/01/27 03:22:43;;;;;;;20.00;4.13;;;4.30;99.90;;;;;;5026430;28;20102;-69
2024/01/27 03:25:10;;;;;;;20.80;3.85;;;4.30;99.90;;;;;;5026317;28;20060;-69
2024/01/27 03:27:36;;;;;;;18.42;3.30;;;4.20;99.90;;;;;;5009732;28;20060;-69
2024/01/27 03:30:03;;;;;;;13.63;3.63;;;4.20;99.90;;;;;;5011515;28;20418;-69
2024/01/27 03:32:31;;;;;;;17.40;4.53;;;4.10;99.90;;;;;;5011257;28;20046;-69
2024/01/27 03:34:58;;;;;;;18.02;4.00;;;4.20;99.90;;;;;;5010239;28;20466;-68
2024/01/27 03:37:24;;;;;;;21.80;4.50;;;4.10;99.90;;;;;;4994120;28;20394;-68
2024/01/27 03:39:50;;;;;;;15.25;3.67;;;4.10;99.90;;;;;;5010064;28;20053;-68
2024/01/27 03:42:15;;;;;;;9.90;2.85;;;4.00;99.90;;;;;;5011580;28;20158;-68
2024/01/27 03:44:41;;;;;;;12.18;3.53;;;4.10;99.90;;;;;;5011684;28;20057;-68
2024/01/27 03:47:07;;;;;;;15.48;3.75;;;4.10;99.90;;;;;;5026392;28;20414;-68
2024/01/27 03:49:32;;;;;;;14.57;3.35;;;4.10;99.90;;;;;;5026120;28;20045;-68
2024/01/27 03:51:58;;;;;;;18.27;3.50;;;4.00;99.90;;;;;;5009596;28;20101;-69
2024/01/27 03:54:24;;;;;;;19.33;4.05;;;4.10;99.90;;;;;;5010911;28;20049;-69
2024/01/27 03:56:49;;;;;;;13.23;3.38;;;4.10;99.90;;;;;;5010924;28;20458;-69
2024/01/27 03:59:15;;;;;;;15.55;3.35;;;4.00;99.90;;;;;;5010960;28;20041;-68
2024/01/27 04:01:41;;;;;;;17.25;4.63;;;4.00;99.90;;;;;;5011155;28;20121;-68
2024/01/27 04:04:06;;;;;;;22.45;4.00;;;4.10;99.90;;;;;;5009598;28;20061;-69
2024/01/27 04:06:42;;;;;;;13.43;3.83;;;4.00;99.90;;;;;;5011257;28;20438;-69
2024/01/27 04:09:11;;;;;;;15.45;3.63;;;4.00;99.90;;;;;;5010886;28;20053;-69
2024/01/27 04:11:38;;;;;;;19.42;4.97;;;4.00;99.90;;;;;;5010741;28;20387;-69
2024/01/27 04:14:05;;;;;;;18.30;3.75;;;4.00;99.90;;;;;;5025713;28;20129;-69
2024/01/27 04:16:31;;;;;;;16.50;4.05;;;4.00;99.90;;;;;;5025611;28;20129;-69
2024/01/27 04:18:56;;;;;;;21.77;4.00;;;4.00;99.90;;;;;;5010895;28;20113;-68
2024/01/27 04:21:22;;;;;;;17.40;3.45;;;4.00;99.90;;;;;;5010750;28;20042;-68
2024/01/27 04:23:48;;;;;;;14.35;3.55;;;4.00;99.90;;;;;;5010482;28;20401;-68
2024/01/27 04:26:14;;;;;;;16.42;4.00;;;4.00;99.90;;;;;;5027013;28;20037;-68
2024/01/27 04:28:39;;;;;;;12.77;2.83;;;3.90;99.90;;;;;;5029847;28;20045;-68
2024/01/27 04:31:06;;;;;;;11.43;5.00;;;3.90;99.90;;;;;;5030367;28;20037;-68
2024/01/27 04:33:32;;;;;;;18.70;3.72;;;3.90;99.90;;;;;;5030372;28;20103;-69
2024/01/27 04:35:57;;;;;;;10.20;4.05;;;3.90;99.90;;;;;;5045538;28;20454;-68
2024/01/27 04:38:23;;;;;;;15.25;3.22;;;3.90;99.90;;;;;;5029579;28;20033;-69
2024/01/27 04:40:50;;;;;;;14.23;3.70;;;3.90;99.90;;;;;;5029898;28;20059;-68
2024/01/27 04:43:16;;;;;;;20.67;4.00;;;3.80;99.90;;;;;;5030043;28;20140;-68
2024/01/27 04:45:43;;;;;;;13.25;3.88;;;3.80;99.90;;;;;;5029799;28;20350;-68
2024/01/27 04:48:08;;;;;;;17.80;3.53;;;3.80;99.90;;;;;;5045054;28;20045;-69
2024/01/27 04:50:34;;;;;;;16.88;3.88;;;3.80;99.90;;;;;;5029714;28;20057;-68
2024/01/27 04:53:00;;;;;;;20.33;4.32;;;3.90;99.90;;;;;;5029349;28;20119;-68
2024/01/27 04:55:26;;;;;;;13.63;3.80;;;3.90;99.90;;;;;;5029597;28;20753;-68
2024/01/27 04:57:53;;;;;;;16.13;4.00;;;3.80;99.90;;;;;;5044866;28;20130;-69
2024/01/27 05:00:19;;;;;;;22.38;4.55;;;3.80;99.90;;;;;;5044666;28;20057;-68
2024/01/27 05:02:45;;;;;;;19.13;4.05;;;3.80;99.90;;;;;;5045075;28;20049;-68
2024/01/27 05:05:11;;;;;;;11.18;3.75;;;3.80;99.90;;;;;;5029507;28;20093;-68
2024/01/27 05:07:38;;;;;;;14.93;3.08;;;3.70;99.90;;;;;;5044318;28;20041;-68
2024/01/27 05:10:04;;;;;;;15.07;3.90;;;3.70;99.90;;;;;;5044636;28;20047;-68
2024/01/27 05:12:30;;;;;;;16.42;3.55;;;3.50;99.90;;;;;;5044763;28;20183;-68
2024/01/27 05:14:55;;;;;;;11.27;3.58;;;3.50;99.90;;;;;;5029021;28;20536;-68
2024/01/27 05:17:21;;;;;;;12.70;3.53;;;3.50;99.90;;;;;;5044399;28;20053;-68
2024/01/27 05:19:47;;;;;;;13.68;4.25;;;3.50;99.90;;;;;;5029069;28;20041;-68
2024/01/27 05:22:12;;;;;;;14.15;2.97;;;3.50;99.90;;;;;;5029033;28;20409;-68
2024/01/27 05:24:38;;;;;;;19.92;3.70;;;3.50;99.90;;;;;;5029004;28;20045;-68
2024/01/27 05:27:04;;;;;;;12.95;3.67;;;3.60;99.90;;;;;;5044076;28;20048;-68
2024/01/27 05:29:30;;;;;;;13.65;3.50;;;3.50;99.90;;;;;;5028792;28;20275;-68
2024/01/27 05:31:55;;;;;;;9.93;3.08;;;3.60;99.90;;;;;;5028918;28;20132;-68
2024/01/27 05:34:21;;;;;;;17.80;4.35;;;3.60;99.90;;;;;;5029214;28;20052;-68
2024/01/27 05:36:49;;;;;;;12.13;3.47;;;3.60;99.90;;;;;;5028545;28;20564;-68
2024/01/27 05:39:15;;;;;;;18.75;4.43;;;3.60;99.90;;;;;;5010812;28;20041;-68
2024/01/27 05:41:41;;;;;;;15.38;3.53;;;3.60;99.90;;;;;;5028895;28;20049;-68
2024/01/27 05:44:06;;;;;;;8.73;3.25;;;3.60;99.90;;;;;;5028733;28;20076;-68
2024/01/27 05:46:32;;;;;;;15.10;4.07;;;3.50;99.90;;;;;;5043578;28;20139;-68
2024/01/27 05:49:02;;;;;;;20.35;3.78;;;3.50;99.90;;;;;;5028673;28;20044;-69
2024/01/27 05:51:28;;;;;;;21.38;5.07;;;3.60;99.90;;;;;;5026861;28;20049;-68
2024/01/27 05:53:54;;;;;;;24.63;4.30;;;3.60;99.90;;;;;;5043673;28;20083;-69
2024/01/27 05:56:22;;;;;;;20.17;4.75;;;3.60;99.90;;;;;;5043821;28;20136;-67
2024/01/27 05:58:48;;;;;;;14.90;3.35;;;3.50;99.90;;;;;;5043704;28;20056;-68
2024/01/27 06:01:14;;;;;;;15.93;4.30;;;3.60;99.90;;;;;;5028669;28;20688;-68
2024/01/27 06:03:43;;;;;;;9.50;3.42;;;3.60;99.90;;;;;;5026499;28;20065;-68
2024/01/27 06:06:09;;;;;;;13.75;4.25;;;3.60;99.90;;;;;;5028277;28;20076;-68
2024/01/27 06:08:35;;;;;;;21.55;4.05;;;3.50;99.90;;;;;;5043225;28;20042;-69
2024/01/27 06:11:01;;;;;;;13.90;3.70;;;3.60;99.90;;;;;;5028424;28;20033;-69
2024/01/27 06:13:27;;;;;;;16.75;4.15;;;3.50;99.90;;;;;;5028223;28;20136;-69
2024/01/27 06:15:52;;;;;;;16.05;4.00;;;3.60;99.90;;;;;;5043109;28;20483;-69
2024/01/27 06:18:18;;;;;;;15.55;4.82;;;3.50;99.90;;;;;;5010283;28;20092;-68
2024/01/27 06:20:44;;;;;;;16.80;4.43;;;3.60;99.90;;;;;;5042921;28;20128;-69
2024/01/27 06:23:10;;;;;;;12.52;4.40;;;3.50;99.90;;;;;;5028081;28;20141;-67
2024/01/27 06:25:35;;;;;;;10.90;3.53;;;3.60;99.90;;;;;;5043038;28;20107;-67
2024/01/27 06:28:04;;;;;;;15.40;3.75;;;3.50;99.90;;;;;;5031945;28;20119;-67
2024/01/27 06:30:30;;;;;;;18.83;4.07;;;3.60;99.90;;;;;;5031926;28;20049;-67
2024/01/27 06:32:55;;;;;;;24.60;6.07;;;3.50;99.90;;;;;;5032025;28;20048;-69
2024/01/27 06:35:21;;;;;;;17.75;4.40;;;3.50;99.90;;;;;;5032228;28;20129;-68
2024/01/27 06:37:47;;;;;;;17.17;4.30;;;3.50;99.90;;;;;;5032652;28;20041;-68
2024/01/27 06:40:13;;;;;;;14.93;4.57;;;3.50;99.90;;;;;;5048215;28;20041;-68
2024/01/27 06:42:39;;;;;;;18.45;4.57;;;3.50;99.90;;;;;;5048382;28;20156;-68
2024/01/27 06:45:05;;;;;;;14.30;4.25;;;3.50;99.90;;;;;;5032304;28;20135;-68
2024/01/27 06:47:31;;;;;;;18.42;4.55;;;3.50;99.90;;;;;;5047473;28;20049;-68
2024/01/27 06:49:57;;;;;;;16.45;4.28;;;3.50;99.90;;;;;;5032113;28;20107;-69
2024/01/27 06:52:22;;;;;;;18.17;4.40;;;3.60;99.90;;;;;;5032029;28;20076;-68
2024/01/27 06:54:48;;;;;;;17.25;5.13;;;3.60;99.90;;;;;;5031982;28;20056;-69
2024/01/27 06:57:21;;;;;;;16.30;4.40;;;3.60;99.90;;;;;;5032315;28;20128;-69
2024/01/27 06:59:51;;;;;;;24.08;6.60;;;3.50;99.90;;;;;;5011070;28;20050;-69
2024/01/27 07:02:27;;;;;;;20.33;6.65;;;3.50;99.90;;;;;;5012105;28;20058;-69
2024/01/27 07:04:53;;;;;;;15.63;4.80;;;3.60;99.90;;;;;;5011951;28;20497;-69
2024/01/27 07:07:28;;;;;;;15.70;5.75;;;3.50;99.90;;;;;;4993262;28;20040;-69
2024/01/27 07:09:58;;;;;;;19.10;6.47;;;3.50;99.90;;;;;;5010457;28;20046;-69
2024/01/27 07:12:23;;;;;;;18.58;4.95;;;3.40;99.90;;;;;;5026779;28;20069;-68
2024/01/27 07:14:51;;;;;;;17.70;6.63;;;3.40;99.90;;;;;;5012365;28;20108;-68
2024/01/27 07:17:16;;;;;;;18.33;5.95;;;3.30;99.90;;;;;;5011542;28;20081;-69
2024/01/27 07:19:42;;;;;;;18.02;5.68;;;3.30;99.90;;;;;;5027027;28;20081;-68
2024/01/27 07:22:08;;;;;;;12.30;5.57;;;3.30;99.90;;;;;;5011878;28;20037;-68
2024/01/27 07:24:34;;;;;;;16.77;5.68;;;3.30;99.90;;;;;;5011416;28;20514;-68
2024/01/27 07:27:03;;;;;;;12.45;5.35;;;3.30;99.90;;;;;;5025511;28;20125;-68
2024/01/27 07:29:29;;;;;;;18.60;5.57;;;3.30;99.90;;;;;;5026397;28;20083;-68
2024/01/27 07:31:55;;;;;;;14.93;7.50;;;3.30;99.90;;;;;;5025905;28;20440;-68
2024/01/27 07:34:21;;;;;;;19.70;6.63;;;3.30;99.90;;;;;;5026215;28;20033;-69
2024/01/27 07:36:49;;;;;;;20.42;6.13;;;3.40;99.90;;;;;;5025942;28;20077;-69
2024/01/27 07:39:15;;;;;;;16.67;6.53;;;3.40;99.90;;;;;;5010657;28;20557;-69
2024/01/27 07:41:42;;;;;;;20.50;6.78;;;3.40;99.90;;;;;;5000643;28;20045;-69
2024/01/27 07:44:12;;;;;;;19.05;6.20;;;3.40;99.90;;;;;;5001482;28;20053;-68
2024/01/27 07:46:39;;;;;;;18.30;6.25;;;3.30;99.90;;;;;;4999992;28;20039;-69
2024/01/27 07:49:08;;;;;;;22.38;7.05;;;3.40;99.90;;;;;;5001521;28;20084;-69
2024/01/27 07:51:34;;;;;;;15.77;7.05;;;3.40;99.90;;;;;;5001980;28;20462;-69
2024/01/27 07:54:00;;;;;;;21.85;6.35;;;3.40;99.90;;;;;;4991632;28;20054;-69
2024/01/27 07:56:27;;;;;;;19.83;6.68;;;3.40;99.90;;;;;;5006498;28;20053;-69
2024/01/27 07:58:53;;;;;;;20.85;7.72;;;3.40;99.90;;;;;;5006549;28;20510;-69
2024/01/27 08:01:19;;;;;;;23.05;6.68;;;3.40;99.90;;;;;;5006327;28;20046;-69
2024/01/27 08:03:45;;;;;;;22.17;6.10;;;3.40;99.90;;;;;;4991145;28;20072;-69
2024/01/27 08:06:16;;;;;;;11.35;5.85;;;3.40;99.90;;;;;;4990832;28;20054;-68
2024/01/27 08:08:48;;;;;;;18.95;6.05;;;3.40;99.90;;;;;;4989984;28;20058;-68
2024/01/27 08:11:15;;;;;;;18.10;6.13;;;3.40;99.90;;;;;;4991065;28;20049;-68
2024/01/27 08:13:41;;;;;;;17.55;6.22;;;3.40;99.90;;;;;;4991738;28;20046;-68
2024/01/27 08:16:09;;;;;;;16.45;6.05;;;3.40;99.90;;;;;;4991786;28;20046;-66
2024/01/27 08:18:39;;;;;;;27.20;7.30;;;3.40;99.90;;;;;;4991677;28;20235;-67
2024/01/27 08:21:05;;;;;;;25.08;7.15;;;3.50;99.90;;;;;;4991704;28;20046;-67
2024/01/27 08:23:30;;;;;;;20.45;6.78;;;3.50;99.90;;;;;;4993716;28;20049;-67
2024/01/27 08:25:56;;;;;;;20.25;7.57;;;3.40;99.90;;;;;;5033653;28;20116;-67
2024/01/27 08:28:22;;;;;;;23.73;6.72;;;3.50;99.90;;;;;;5010707;28;20113;-68
2024/01/27 08:30:48;;;;;;;14.77;6.07;;;3.50;99.90;;;;;;5010879;28;20037;-68
2024/01/27 08:33:14;;;;;;;14.82;6.57;;;3.60;99.90;;;;;;5010681;28;20115;-68
2024/01/27 08:35:40;;;;;;;16.83;6.40;;;3.60;99.90;;;;;;4992720;28;20137;-68
2024/01/27 08:38:06;;;;;;;21.00;7.00;;;3.60;99.90;;;;;;5025486;28;20053;-67
2024/01/27 08:40:32;;;;;;;16.88;6.50;;;3.60;99.90;;;;;;5010439;28;20124;-68
2024/01/27 08:42:58;;;;;;;19.70;6.70;;;3.70;99.90;;;;;;5010489;28;20030;-68
2024/01/27 08:45:25;;;;;;;21.52;7.97;;;3.70;99.90;;;;;;5010197;28;20367;-68
2024/01/27 08:47:51;;;;;;;18.83;6.85;;;3.60;99.90;;;;;;5010341;28;20104;-68
2024/01/27 08:50:16;;;;;;;23.02;7.50;;;3.70;99.90;;;;;;5009719;28;20398;-68
2024/01/27 08:52:42;;;;;;;19.02;8.35;;;3.70;99.90;;;;;;5010082;28;20046;-69
2024/01/27 08:55:08;;;;;;;22.30;8.13;;;3.70;99.90;;;;;;5025041;28;20418;-70
2024/01/27 08:57:34;;;;;;;16.02;8.30;;;3.70;99.90;;;;;;5024902;28;20056;-70
2024/01/27 08:59:59;;;;;;;23.70;8.85;;;3.80;99.90;;;;;;5009674;28;20437;-69
2024/01/27 09:02:25;;;;;;;22.52;7.78;;;3.80;99.90;;;;;;5010120;28;20128;-69
2024/01/27 09:04:51;;;;;;;20.10;7.55;;;3.90;99.90;;;;;;5024956;28;20054;-67
2024/01/27 09:07:17;;;;;;;27.98;8.07;;;3.80;99.90;;;;;;5009387;28;20058;-67
2024/01/27 09:09:43;;;;;;;19.73;8.02;;;3.80;99.90;;;;;;5009608;28;20462;-67
2024/01/27 09:12:08;;;;;;;19.10;7.93;;;3.90;99.90;;;;;;5024708;28;20110;-68
2024/01/27 09:14:34;;;;;;;18.55;7.82;;;3.90;99.90;;;;;;5007922;28;20041;-68
2024/01/27 09:17:03;;;;;;;21.10;7.32;;;4.00;99.90;;;;;;5023849;28;20520;-68
2024/01/27 09:19:29;;;;;;;18.90;8.75;;;3.90;99.90;;;;;;4997187;28;20406;-69
2024/01/27 09:21:54;;;;;;;20.45;9.77;;;4.00;99.90;;;;;;5024192;28;20052;-69
2024/01/27 09:24:20;;;;;;;21.67;9.23;;;3.90;99.90;;;;;;4991367;28;20811;-69
2024/01/27 09:26:46;;;;;;;17.15;8.35;;;4.00;99.90;;;;;;5025810;28;20041;-69
2024/01/27 09:29:12;;;;;;;17.85;9.93;;;4.10;99.90;;;;;;5024640;28;20140;-68
2024/01/27 09:31:37;;;;;;;24.95;10.43;;;4.30;99.90;;;;;;5024555;28;20084;-69
2024/01/27 09:34:03;;;;;;;19.33;8.38;;;4.40;99.90;;;;;;5009539;28;20160;-69
2024/01/27 09:36:29;;;;;;;21.45;9.30;;;4.50;99.90;;;;;;5024757;28;20460;-69
2024/01/27 09:38:54;;;;;;;17.25;8.63;;;4.60;99.90;;;;;;5009301;28;20128;-68
2024/01/27 09:41:20;;;;;;;22.85;9.57;;;4.60;99.90;;;;;;5009568;28;20042;-69
2024/01/27 09:43:47;;;;;;;27.50;9.10;;;4.50;99.90;;;;;;5008968;28;20382;-68
2024/01/27 09:46:17;;;;;;;27.52;9.82;;;4.60;99.90;;;;;;5009604;28;20506;-68
2024/01/27 09:48:44;;;;;;;26.52;9.63;;;4.70;99.90;;;;;;5008351;28;20038;-68
2024/01/27 09:51:10;;;;;;;24.50;9.18;;;4.70;99.90;;;;;;5009226;28;20052;-67
2024/01/27 09:53:36;;;;;;;21.38;8.85;;;4.70;99.90;;;;;;5008999;28;20046;-68
2024/01/27 09:56:06;;;;;;;22.40;10.07;;;4.80;99.90;;;;;;5009368;28;20050;-67
2024/01/27 09:58:31;;;;;;;24.33;9.30;;;4.80;99.90;;;;;;5009837;28;20413;-68
2024/01/27 10:00:59;;;;;;;24.13;9.77;;;4.90;99.90;;;;;;5007622;28;20049;-67
2024/01/27 10:03:26;;;;;;;23.90;10.05;;;4.90;99.90;;;;;;5009178;28;20347;-67
2024/01/27 10:05:53;;;;;;;18.35;9.95;;;5.00;99.90;;;;;;5023931;28;20061;-67
2024/01/27 10:08:21;;;;;;;20.33;10.27;;;5.10;99.90;;;;;;5019519;28;20128;-69
2024/01/27 10:10:47;;;;;;;20.38;9.60;;;5.10;99.90;;;;;;5013286;28;20052;-68
2024/01/27 10:13:17;;;;;;;21.25;10.02;;;5.10;99.90;;;;;;5008715;28;20485;-70
2024/01/27 10:15:43;;;;;;;21.73;10.05;;;5.20;99.90;;;;;;5009183;28;20095;-69
2024/01/27 10:18:12;;;;;;;20.65;10.10;;;5.10;99.90;;;;;;5024093;28;20045;-69
2024/01/27 10:20:39;;;;;;;21.70;10.73;;;5.20;99.90;;;;;;5007712;28;20045;-70
2024/01/27 10:23:12;;;;;;;27.63;10.55;;;5.30;99.90;;;;;;5009069;28;20061;-70
2024/01/27 10:25:38;;;;;;;;;;;5.40;99.90;;;;;;5024412;28;20403;-70
2024/01/27 10:28:06;;;;;;;25.88;10.35;;;5.40;99.90;;;;;;5007221;28;19967;-70
2024/01/27 10:30:32;;;;;;;18.55;10.40;;;5.50;99.90;;;;;;5008803;28;20410;-70
2024/01/27 10:32:58;;;;;;;25.83;9.45;;;5.50;99.90;;;;;;5007188;28;20049;-70
2024/01/27 10:35:23;;;;;;;22.05;8.80;;;5.50;99.90;;;;;;5024122;28;20077;-70
2024/01/27 10:37:53;;;;;;;20.65;9.50;;;5.60;99.90;;;;;;5023814;28;20049;-70
2024/01/27 10:40:19;;;;;;;19.92;8.43;;;5.60;99.90;;;;;;5023580;28;20049;-70
2024/01/27 10:42:45;;;;;;;22.27;9.35;;;5.70;99.90;;;;;;5008709;28;20179;-70
2024/01/27 10:45:12;;;;;;;16.27;7.88;;;5.70;99.90;;;;;;5008841;28;20049;-70
2024/01/27 10:47:39;;;;;;;22.17;8.52;;;5.80;99.90;;;;;;5009126;28;20398;-69
2024/01/27 10:50:09;;;;;;;24.75;9.07;;;5.80;99.90;;;;;;5008633;28;20057;-69
2024/01/27 10:52:42;;;;;;;16.05;7.63;;;5.90;99.90;;;;;;5010930;28;20125;-69
2024/01/27 10:55:10;;;;;;;27.38;8.35;;;6.00;99.90;;;;;;5028800;28;20041;-70
2024/01/27 10:57:37;;;;;;;21.45;7.95;;;6.00;99.90;;;;;;5029565;28;20093;-69
2024/01/27 11:00:06;;;;;;;24.13;7.90;;;6.00;99.90;;;;;;5008816;28;20121;-68
2024/01/27 11:02:33;;;;;;;24.98;8.60;;;6.10;99.90;;;;;;5023641;28;20135;-68
2024/01/27 11:05:02;;;;;;;24.98;8.50;;;6.20;99.90;;;;;;5008601;28;20410;-68
2024/01/27 11:07:29;;;;;;;19.02;7.88;;;6.20;99.90;;;;;;5008386;28;20050;-68
2024/01/27 11:09:55;;;;;;;17.02;8.10;;;6.20;99.90;;;;;;5008312;28;20081;-68
2024/01/27 11:12:22;;;;;;;21.98;7.18;;;6.20;99.90;;;;;;5009128;28;20158;-68
2024/01/27 11:14:48;;;;;;;16.10;6.78;;;6.20;99.90;;;;;;5011960;28;20064;-68
2024/01/27 11:17:17;;;;;;;18.80;8.05;;;6.30;99.90;;;;;;5012220;28;20068;-68
2024/01/27 11:19:45;;;;;;;22.88;7.55;;;6.30;99.90;;;;;;5012125;28;20100;-68
2024/01/27 11:22:32;;;;;;;24.40;8.60;;;6.40;99.90;;;;;;5011964;28;20045;-67
2024/01/27 11:25:08;;;;;;;20.40;7.63;;;6.50;99.90;;;;;;5026553;28;20105;-67
2024/01/27 11:27:35;;;;;;;21.27;7.85;;;6.50;99.90;;;;;;5011419;28;20041;-67
2024/01/27 11:30:01;;;;;;;18.65;7.03;;;6.40;99.90;;;;;;5011999;28;20180;-68
2024/01/27 11:32:26;;;;;;;18.50;6.75;;;6.50;99.90;;;;;;5011746;28;20129;-67
2024/01/27 11:34:52;;;;;;;26.13;7.57;;;6.60;99.90;;;;;;5026969;28;20057;-68
2024/01/27 11:37:24;;;;;;;16.08;6.40;;;6.60;99.90;;;;;;5011584;28;20529;-68
2024/01/27 11:39:50;;;;;;;20.20;6.07;;;6.60;99.90;;;;;;5011823;28;20125;-67
2024/01/27 11:42:17;;;;;;;23.13;6.30;;;6.70;99.90;;;;;;5011690;28;20109;-68
2024/01/27 11:44:45;;;;;;;20.02;6.68;;;6.80;99.90;;;;;;5026484;28;20046;-67
2024/01/27 11:47:16;;;;;;;23.05;5.85;;;6.70;99.90;;;;;;5026499;28;20049;-68
2024/01/27 11:49:43;;;;;;;21.48;6.15;;;6.70;99.90;;;;;;5024402;28;20502;-67
2024/01/27 11:52:08;;;;;;;15.98;5.97;;;6.80;99.90;;;;;;4999870;28;20084;-67
2024/01/27 11:54:35;;;;;;;14.18;5.88;;;6.80;99.90;;;;;;5002879;28;20081;-67
2024/01/27 11:57:01;;;;;;;18.38;5.85;;;6.80;99.90;;;;;;5001606;28;20612;-67
2024/01/27 11:59:27;;;;;;;14.80;5.63;;;6.90;99.90;;;;;;5006127;28;20049;-67
2024/01/27 12:01:53;;;;;;;21.52;6.75;;;6.90;99.90;;;;;;5026851;28;20056;-67
2024/01/27 12:04:19;;;;;;;21.23;6.25;;;6.90;99.90;;;;;;5011586;28;20405;-67
2024/01/27 12:06:45;;;;;;;18.02;5.43;;;7.00;99.90;;;;;;5026229;28;20093;-67
2024/01/27 12:09:12;;;;;;;18.48;5.60;;;7.00;99.90;;;;;;5010296;28;20544;-67
2024/01/27 12:11:41;;;;;;;20.48;5.90;;;7.00;99.90;;;;;;5011821;28;20072;-67
2024/01/27 12:14:07;;;;;;;20.90;5.45;;;7.10;99.90;;;;;;5011617;28;20077;-67
2024/01/27 12:16:33;;;;;;;18.92;5.32;;;7.10;99.90;;;;;;5026660;28;20088;-67
2024/01/27 12:18:59;;;;;;;20.67;6.30;;;7.10;99.90;;;;;;5011685;28;20484;-67
2024/01/27 12:21:25;;;;;;;15.45;5.28;;;7.20;99.90;;;;;;5011432;28;20273;-68
2024/01/27 12:23:56;;;;;;;21.73;6.55;;;7.20;99.90;;;;;;5008531;28;20425;-67
2024/01/27 12:26:25;;;;;;;21.08;5.72;;;7.30;99.90;;;;;;5011080;28;20050;-67
2024/01/27 12:28:51;;;;;;;17.75;4.85;;;7.20;99.90;;;;;;5025971;28;20406;-68
2024/01/27 12:31:17;;;;;;;15.82;5.30;;;7.30;99.90;;;;;;5011160;28;20042;-65
2024/01/27 12:33:53;;;;;;;11.68;4.10;;;7.20;99.90;;;;;;5027005;28;20573;-66
2024/01/27 12:36:20;;;;;;;20.42;6.07;;;7.30;99.90;;;;;;5009369;28;20129;-66
2024/01/27 12:39:00;;;;;;;18.60;5.22;;;7.30;99.90;;;;;;5010452;28;20121;-66
2024/01/27 12:41:26;;;;;;;15.55;4.00;;;7.30;99.90;;;;;;5010767;28;20462;-66
2024/01/27 12:43:53;;;;;;;19.10;4.93;;;7.30;99.90;;;;;;5011031;28;20121;-66